createdAt,value
2019-02-19T00:00:56.159Z,4.04
2019-02-19T00:03:25.575Z,3.95
2019-02-19T00:05:54.911Z,3.92
2019-02-19T00:08:24.279Z,3.79
2019-02-19T00:10:53.657Z,3.78
2019-02-19T00:13:23.010Z,3.66
2019-02-19T00:15:52.555Z,3.68
2019-02-19T00:18:21.887Z,3.64
2019-02-19T00:20:51.262Z,3.79
2019-02-19T00:23:20.693Z,3.88
2019-02-19T00:25:50.095Z,3.86
2019-02-19T00:28:19.496Z,3.86
2019-02-19T00:30:48.832Z,3.86
2019-02-19T00:33:18.153Z,3.68
2019-02-19T00:35:47.487Z,3.61
2019-02-19T00:38:16.823Z,3.55
2019-02-19T00:40:46.170Z,3.55
2019-02-19T00:43:15.531Z,3.64
2019-02-19T00:45:44.871Z,3.64
2019-02-19T00:48:14.222Z,3.43
2019-02-19T00:50:43.641Z,3.29
2019-02-19T00:53:12.971Z,3.30
2019-02-19T00:55:42.317Z,3.33
2019-02-19T00:58:11.619Z,3.32
2019-02-19T01:00:40.956Z,3.32
2019-02-19T01:03:10.299Z,3.13
2019-02-19T01:05:39.653Z,3.13
2019-02-19T01:08:09.070Z,3.08
2019-02-19T01:10:38.519Z,3.08
2019-02-19T01:13:07.886Z,3.13
2019-02-19T01:15:37.235Z,2.09
2019-02-19T01:18:07.125Z,2.96
2019-02-19T01:20:36.473Z,3.11
2019-02-19T01:23:05.797Z,3.12
2019-02-19T01:25:35.118Z,3.19
2019-02-19T01:28:04.542Z,3.06
2019-02-19T01:30:33.962Z,2.84
2019-02-19T01:33:03.368Z,2.86
2019-02-19T01:35:32.792Z,2.93
2019-02-19T01:38:02.222Z,2.96
2019-02-19T01:40:31.564Z,3.10
2019-02-19T01:43:00.894Z,3.16
2019-02-19T01:45:34.137Z,3.21
2019-02-19T01:48:01.338Z,3.16
2019-02-19T01:50:30.707Z,3.06
2019-02-19T01:53:00.121Z,3.22
2019-02-19T01:55:29.466Z,3.33
2019-02-19T01:57:58.798Z,3.21
2019-02-19T02:00:28.271Z,3.19
2019-02-19T02:02:57.618Z,3.29
2019-02-19T02:05:27.047Z,3.29
2019-02-19T02:07:56.381Z,3.14
2019-02-19T02:10:25.715Z,3.00
2019-02-19T02:12:55.072Z,2.81
2019-02-19T02:15:24.457Z,2.71
2019-02-19T02:17:53.815Z,2.70
2019-02-19T02:20:23.151Z,2.62
2019-02-19T02:22:52.502Z,2.59
2019-02-19T02:25:21.851Z,2.65
2019-02-19T02:27:51.187Z,2.55
2019-02-19T02:30:20.551Z,2.56
2019-02-19T02:32:49.872Z,2.55
2019-02-19T02:35:19.197Z,2.80
2019-02-19T02:37:48.531Z,2.90
2019-02-19T02:40:17.891Z,2.78
2019-02-19T02:42:47.251Z,2.59
2019-02-19T02:45:16.587Z,2.47
2019-02-19T02:47:45.919Z,2.43
2019-02-19T02:50:15.269Z,2.40
2019-02-19T02:52:44.627Z,2.35
2019-02-19T02:55:13.964Z,2.32
2019-02-19T02:57:43.399Z,2.31
2019-02-19T03:00:13.272Z,2.27
2019-02-19T03:02:42.585Z,2.30
2019-02-19T03:05:11.906Z,2.35
2019-02-19T03:07:44.390Z,2.30
2019-02-19T03:10:13.712Z,2.22
2019-02-19T03:12:43.105Z,2.28
2019-02-19T03:15:12.925Z,2.09
2019-02-19T03:17:42.262Z,2.09
2019-02-19T03:20:11.706Z,2.15
2019-02-19T03:22:41.124Z,2.10
2019-02-19T03:25:10.547Z,2.09
2019-02-19T03:27:39.907Z,2.02
2019-02-19T03:30:10.954Z,1.86
2019-02-19T03:32:40.390Z,1.49
2019-02-19T03:35:09.773Z,1.52
2019-02-19T03:37:39.180Z,1.55
2019-02-19T03:40:08.898Z,1.58
2019-02-19T03:42:38.260Z,1.61
2019-02-19T03:45:09.144Z,1.60
2019-02-19T03:47:38.503Z,1.63
2019-02-19T03:50:07.927Z,1.60
2019-02-19T03:52:37.314Z,1.54
2019-02-19T03:55:06.707Z,1.48
2019-02-19T03:57:36.267Z,1.46
2019-02-19T04:00:05.877Z,1.38
2019-02-19T04:02:35.266Z,1.36
2019-02-19T04:05:04.587Z,1.37
2019-02-19T04:07:33.935Z,1.43
2019-02-19T04:10:03.386Z,1.45
2019-02-19T04:12:32.780Z,1.34
2019-02-19T04:15:02.113Z,1.27
2019-02-19T04:17:31.493Z,1.25
2019-02-19T04:20:00.884Z,1.23
2019-02-19T04:22:30.252Z,1.48
2019-02-19T04:24:59.603Z,2.43
2019-02-19T04:27:28.935Z,1.95
2019-02-19T04:29:58.302Z,1.55
2019-02-19T04:32:27.633Z,1.38
2019-02-19T04:34:56.976Z,1.33
2019-02-19T04:37:26.306Z,1.28
2019-02-19T04:39:55.639Z,1.23
2019-02-19T04:42:25.177Z,1.27
2019-02-19T04:44:54.513Z,1.27
2019-02-19T04:47:23.860Z,1.06
2019-02-19T04:49:53.202Z,1.11
2019-02-19T04:52:22.544Z,1.14
2019-02-19T04:54:51.879Z,1.06
2019-02-19T04:57:21.257Z,0.89
2019-02-19T04:59:50.679Z,0.90
2019-02-19T05:02:20.150Z,1.11
2019-02-19T05:04:49.586Z,1.04
2019-02-19T05:07:18.933Z,0.80
2019-02-19T05:09:48.735Z,0.73
2019-02-19T05:12:18.083Z,0.86
2019-02-19T05:14:47.438Z,0.94
2019-02-19T05:17:16.778Z,0.92
2019-02-19T05:19:46.125Z,1.09
2019-02-19T05:22:15.469Z,1.05
2019-02-19T05:24:44.841Z,0.97
2019-02-19T05:27:14.192Z,0.89
2019-02-19T05:29:43.552Z,0.90
2019-02-19T05:32:12.922Z,0.95
2019-02-19T05:34:42.317Z,1.08
2019-02-19T05:37:11.667Z,1.44
2019-02-19T05:39:41.017Z,1.56
2019-02-19T05:42:10.465Z,1.84
2019-02-19T05:44:39.788Z,2.05
2019-02-19T05:47:09.167Z,2.35
2019-02-19T05:49:38.507Z,2.48
2019-02-19T05:52:08.364Z,2.56
2019-02-19T05:54:37.718Z,2.67
2019-02-19T05:57:07.061Z,2.84
2019-02-19T05:59:36.380Z,3.25
2019-02-19T06:02:05.707Z,3.53
2019-02-19T06:04:35.092Z,4.04
2019-02-19T06:07:04.559Z,4.47
2019-02-19T06:09:33.930Z,4.61
2019-02-19T06:12:03.262Z,4.60
2019-02-19T06:14:32.607Z,4.47
2019-02-19T06:17:01.937Z,4.44
2019-02-19T06:19:31.247Z,4.64
2019-02-19T06:22:00.569Z,5.22
2019-02-19T06:24:29.886Z,5.53
2019-02-19T06:26:59.364Z,5.63
2019-02-19T06:29:28.731Z,5.58
2019-02-19T06:31:58.087Z,5.57
2019-02-19T06:34:27.474Z,5.83
2019-02-19T06:36:56.827Z,5.95
2019-02-19T06:39:26.192Z,5.31
2019-02-19T06:41:55.553Z,5.41
2019-02-19T06:44:24.942Z,5.88
2019-02-19T06:46:54.294Z,6.07
2019-02-19T06:49:23.774Z,6.22
2019-02-19T06:51:55.736Z,6.47
2019-02-19T06:54:25.047Z,6.75
2019-02-19T06:56:54.394Z,7.20
2019-02-19T06:59:23.845Z,7.08
2019-02-19T07:02:18.102Z,6.86
2019-02-19T07:04:51.345Z,7.60
2019-02-19T07:07:20.666Z,8.07
2019-02-19T07:09:50.010Z,8.38
2019-02-19T07:12:19.365Z,8.69
2019-02-19T07:14:48.721Z,8.63
2019-02-19T07:17:18.053Z,8.56
2019-02-19T07:19:47.671Z,7.85
2019-02-19T07:22:17.004Z,7.75
2019-02-19T07:24:46.375Z,7.87
2019-02-19T07:27:15.987Z,8.20
2019-02-19T07:29:45.336Z,8.21
2019-02-19T07:32:14.755Z,7.74
2019-02-19T07:34:44.453Z,7.81
2019-02-19T07:37:13.797Z,7.93
2019-02-19T07:39:43.126Z,8.19
2019-02-19T07:42:12.530Z,8.12
2019-02-19T07:44:41.870Z,8.43
2019-02-19T07:47:11.361Z,8.30
2019-02-19T07:49:40.786Z,7.96
2019-02-19T07:52:10.149Z,7.57
2019-02-19T07:54:39.512Z,7.38
2019-02-19T07:57:08.835Z,7.81
2019-02-19T07:59:38.139Z,8.23
2019-02-19T08:02:07.463Z,8.62
2019-02-19T08:04:36.771Z,9.08
2019-02-19T08:07:06.122Z,9.39
2019-02-19T08:09:35.483Z,9.32
2019-02-19T08:12:04.837Z,9.34
2019-02-19T08:14:34.165Z,9.96
2019-02-19T08:17:03.628Z,9.96
2019-02-19T08:19:32.991Z,10.16
2019-02-19T08:22:02.348Z,10.17
2019-02-19T08:24:31.755Z,10.50
2019-02-19T08:27:01.053Z,10.60
2019-02-19T08:29:30.501Z,10.80
2019-02-19T08:31:59.833Z,11.01
2019-02-19T08:34:29.162Z,11.40
2019-02-19T08:36:58.521Z,11.50
2019-02-19T08:39:27.972Z,11.48
2019-02-19T08:41:57.419Z,11.52
2019-02-19T08:44:26.854Z,11.66
2019-02-19T08:46:56.232Z,12.04
2019-02-19T08:49:25.657Z,11.94
2019-02-19T08:51:56.298Z,12.01
2019-02-19T08:54:25.822Z,12.01
2019-02-19T08:56:55.246Z,12.16
2019-02-19T08:59:24.578Z,12.37
2019-02-19T09:01:53.941Z,12.27
2019-02-19T09:04:23.302Z,12.29
2019-02-19T09:06:52.652Z,12.87
2019-02-19T09:09:22.031Z,12.63
2019-02-19T09:11:51.408Z,12.52
2019-02-19T09:14:20.814Z,12.72
2019-02-19T09:16:50.183Z,12.78
2019-02-19T09:19:19.517Z,12.55
2019-02-19T09:21:49.114Z,13.28
2019-02-19T09:24:18.624Z,13.29
2019-02-19T09:26:48.344Z,13.18
2019-02-19T09:29:17.849Z,13.39
2019-02-19T09:31:47.194Z,13.63
2019-02-19T09:34:16.531Z,13.20
2019-02-19T09:36:45.901Z,13.25
2019-02-19T09:39:15.383Z,13.76
2019-02-19T09:41:44.809Z,13.76
2019-02-19T09:44:14.180Z,13.49
2019-02-19T09:46:43.536Z,13.50
2019-02-19T09:49:12.888Z,14.07
2019-02-19T09:51:42.243Z,14.16
2019-02-19T09:54:11.741Z,14.57
2019-02-19T09:56:41.321Z,14.77
2019-02-19T09:59:10.698Z,14.15
2019-02-19T10:01:40.071Z,14.03
2019-02-19T10:04:09.727Z,14.33
2019-02-19T10:06:39.064Z,14.91
2019-02-19T10:09:09.504Z,14.52
2019-02-19T10:11:38.805Z,14.98
2019-02-19T10:14:08.144Z,15.53
2019-02-19T10:16:41.573Z,15.34
2019-02-19T10:19:08.552Z,15.38
2019-02-19T10:21:37.894Z,15.68
2019-02-19T10:24:07.219Z,15.58
2019-02-19T10:26:36.603Z,16.09
2019-02-19T10:29:05.963Z,15.87
2019-02-19T10:31:35.351Z,15.69
2019-02-19T10:34:04.723Z,15.80
2019-02-19T10:36:34.074Z,15.64
2019-02-19T10:39:04.829Z,15.66
2019-02-19T10:41:34.151Z,15.67
2019-02-19T10:44:03.481Z,15.73
2019-02-19T10:46:32.841Z,15.91
2019-02-19T10:49:02.216Z,15.96
2019-02-19T10:51:31.591Z,16.37
2019-02-19T10:54:00.962Z,16.31
2019-02-19T10:56:30.366Z,15.91
2019-02-19T10:58:59.738Z,16.56
2019-02-19T11:01:29.134Z,16.21
2019-02-19T11:03:58.520Z,16.46
2019-02-19T11:06:27.849Z,16.52
2019-02-19T11:08:57.252Z,16.08
2019-02-19T11:11:26.583Z,16.17
2019-02-19T11:13:55.972Z,16.72
2019-02-19T11:16:25.349Z,17.14
2019-02-19T11:18:54.710Z,17.42
2019-02-19T11:21:24.061Z,16.79
2019-02-19T11:23:53.463Z,16.65
2019-02-19T11:26:22.818Z,17.12
2019-02-19T11:28:52.166Z,17.52
2019-02-19T11:31:22.504Z,18.11
2019-02-19T11:33:51.853Z,17.90
2019-02-19T11:36:21.208Z,17.90
2019-02-19T11:38:50.953Z,18.14
2019-02-19T11:41:20.280Z,17.88
2019-02-19T11:43:49.668Z,17.86
2019-02-19T11:46:19.045Z,16.85
2019-02-19T11:48:48.424Z,17.56
2019-02-19T11:51:17.779Z,17.85
2019-02-19T11:53:47.109Z,17.79
2019-02-19T11:56:16.495Z,18.32
2019-02-19T11:58:45.821Z,18.35
2019-02-19T12:01:15.117Z,18.15
2019-02-19T12:03:44.469Z,17.98
2019-02-19T12:06:13.807Z,17.90
2019-02-19T12:08:43.177Z,18.00
2019-02-19T12:11:12.588Z,18.14
2019-02-19T12:13:41.995Z,17.78
2019-02-19T12:16:11.355Z,17.97
2019-02-19T12:18:46.267Z,17.99
2019-02-19T12:21:11.850Z,18.10
2019-02-19T12:23:41.157Z,18.36
2019-02-19T12:26:10.500Z,18.51
2019-02-19T12:28:39.910Z,18.80
2019-02-19T12:31:09.273Z,18.08
2019-02-19T12:33:38.599Z,18.58
2019-02-19T12:36:07.955Z,18.28
2019-02-19T12:38:37.331Z,18.58
2019-02-19T12:41:06.666Z,18.21
2019-02-19T12:43:36.054Z,18.26
2019-02-19T12:46:05.383Z,18.29
2019-02-19T12:48:34.728Z,18.81
2019-02-19T12:51:04.217Z,19.11
2019-02-19T12:53:33.575Z,19.72
2019-02-19T12:56:02.935Z,19.46
2019-02-19T12:58:32.274Z,18.91
2019-02-19T13:01:01.800Z,18.44
2019-02-19T13:03:31.151Z,19.04
2019-02-19T13:06:00.605Z,19.43
2019-02-19T13:08:30.015Z,18.95
2019-02-19T13:10:59.477Z,18.65
2019-02-19T13:13:28.848Z,18.84
2019-02-19T13:15:58.198Z,18.45
2019-02-19T13:18:28.545Z,18.80
2019-02-19T13:20:57.907Z,18.94
2019-02-19T13:23:27.537Z,19.17
2019-02-19T13:25:56.935Z,18.57
2019-02-19T13:28:26.291Z,18.46
2019-02-19T13:30:55.739Z,18.69
2019-02-19T13:33:25.073Z,18.95
2019-02-19T13:35:54.454Z,18.76
2019-02-19T13:38:23.899Z,18.95
2019-02-19T13:40:53.248Z,18.89
2019-02-19T13:43:22.681Z,18.85
2019-02-19T13:45:52.040Z,18.75
2019-02-19T13:48:21.449Z,18.42
2019-02-19T13:50:50.804Z,18.23
2019-02-19T13:53:44.947Z,18.11
2019-02-19T13:56:14.739Z,18.23
2019-02-19T13:58:44.093Z,17.69
2019-02-19T14:01:13.556Z,17.80
2019-02-19T14:03:42.877Z,17.78
2019-02-19T14:06:12.304Z,17.41
2019-02-19T14:08:41.660Z,17.29
2019-02-19T14:11:10.999Z,17.28
2019-02-19T14:13:44.006Z,17.36
2019-02-19T14:16:23.612Z,17.20
2019-02-19T14:18:54.730Z,17.05
2019-02-19T14:21:40.779Z,17.04
2019-02-19T14:24:32.389Z,16.92
2019-02-19T14:27:23.568Z,15.44
2019-02-19T14:30:11.850Z,16.69
2019-02-19T14:32:56.103Z,16.65
2019-02-19T14:35:42.939Z,16.62
2019-02-19T14:38:36.762Z,16.55
2019-02-19T14:41:23.911Z,16.05
2019-02-19T14:44:21.271Z,16.64
2019-02-19T14:47:24.718Z,16.71
2019-02-19T14:50:22.002Z,16.65
2019-02-19T14:53:13.893Z,15.63
2019-02-19T14:56:20.212Z,16.50
2019-02-19T14:59:14.626Z,16.49
2019-02-19T15:02:02.870Z,16.33
2019-02-19T15:05:00.493Z,16.22
2019-02-19T15:08:07.178Z,16.25
2019-02-19T15:10:55.441Z,16.19
2019-02-19T15:13:40.707Z,16.15
2019-02-19T15:16:34.762Z,16.06
2019-02-19T15:19:19.946Z,16.07
2019-02-19T15:22:09.995Z,16.02
2019-02-19T15:25:10.423Z,15.97
2019-02-19T15:28:08.022Z,15.94
2019-02-19T15:30:55.344Z,15.87
2019-02-19T15:33:47.802Z,15.79
2019-02-19T15:36:34.700Z,15.72
2019-02-19T15:39:25.992Z,15.64
2019-02-19T15:42:12.879Z,15.62
2019-02-19T15:44:58.970Z,15.55
2019-02-19T15:47:47.390Z,15.49
2019-02-19T15:50:41.756Z,15.39
2019-02-19T15:53:26.448Z,15.31
2019-02-19T15:56:17.648Z,15.20
2019-02-19T15:59:09.919Z,15.11
2019-02-19T16:01:58.239Z,15.01
2019-02-19T16:04:46.491Z,14.93
2019-02-19T16:07:35.230Z,14.85
2019-02-19T16:10:23.660Z,14.73
2019-02-19T16:12:58.406Z,14.68
2019-02-19T16:15:45.271Z,14.56
2019-02-19T16:18:36.561Z,14.48
2019-02-19T16:21:37.216Z,14.45
2019-02-19T16:24:24.193Z,14.32
2019-02-19T16:27:09.483Z,14.12
2019-02-19T16:29:50.249Z,13.98
2019-02-19T16:32:44.433Z,13.73
2019-02-19T16:35:32.730Z,13.63
2019-02-19T16:38:20.649Z,13.56
2019-02-19T16:41:27.208Z,13.53
2019-02-19T16:44:14.303Z,13.37
2019-02-19T16:47:05.333Z,13.27
2019-02-19T16:49:52.642Z,13.21
2019-02-19T16:52:47.174Z,13.09
2019-02-19T16:55:25.541Z,13.04
2019-02-19T16:58:01.182Z,12.98
2019-02-19T17:00:50.830Z,12.88
2019-02-19T17:03:57.546Z,12.77
2019-02-19T17:06:46.321Z,12.66
2019-02-19T17:09:32.222Z,12.61
2019-02-19T17:12:16.743Z,12.49
2019-02-19T17:15:04.429Z,12.44
2019-02-19T17:17:51.575Z,12.27
2019-02-19T17:20:54.987Z,11.73
2019-02-19T17:23:38.956Z,11.45
2019-02-19T17:26:19.098Z,11.19
2019-02-19T17:28:54.657Z,10.95
2019-02-19T17:31:51.983Z,10.71
2019-02-19T17:34:38.816Z,10.55
2019-02-19T17:37:30.035Z,10.50
2019-02-19T17:40:18.292Z,10.39
2019-02-19T17:42:58.928Z,10.29
2019-02-19T17:45:53.480Z,10.20
2019-02-19T17:48:40.418Z,10.13
2019-02-19T17:51:28.661Z,10.10
2019-02-19T17:54:09.581Z,9.90
2019-02-19T17:57:09.851Z,9.81
2019-02-19T17:59:57.531Z,9.79
2019-02-19T18:02:51.614Z,9.84
2019-02-19T18:05:33.505Z,9.84
2019-02-19T18:08:33.993Z,9.78
2019-02-19T18:11:20.231Z,9.73
2019-02-19T18:14:08.526Z,9.68
2019-02-19T18:16:49.861Z,9.59
2019-02-19T18:19:19.211Z,9.53
2019-02-19T18:21:48.582Z,9.50
2019-02-19T18:24:17.968Z,9.48
2019-02-19T18:26:47.414Z,9.44
2019-02-19T18:29:17.718Z,9.43
2019-02-19T18:31:47.124Z,9.41
2019-02-19T18:34:16.510Z,9.32
2019-02-19T18:36:46.239Z,9.26
2019-02-19T18:39:15.533Z,9.20
2019-02-19T18:41:44.852Z,9.10
2019-02-19T18:44:14.194Z,9.10
2019-02-19T18:46:43.521Z,9.07
2019-02-19T18:49:12.861Z,9.01
2019-02-19T18:51:42.228Z,8.95
2019-02-19T18:54:12.058Z,8.92
2019-02-19T18:56:41.599Z,8.90
2019-02-19T18:59:11.080Z,8.84
2019-02-19T19:01:40.469Z,8.78
2019-02-19T19:04:09.887Z,8.70
2019-02-19T19:06:41.034Z,8.65
2019-02-19T19:09:10.415Z,8.57
2019-02-19T19:11:39.776Z,8.47
2019-02-19T19:14:09.247Z,8.37
2019-02-19T19:16:38.832Z,8.23
2019-02-19T19:19:08.297Z,8.14
2019-02-19T19:21:37.667Z,8.07
2019-02-19T19:24:07.099Z,8.02
2019-02-19T19:26:36.487Z,7.97
2019-02-19T19:29:05.896Z,7.92
2019-02-19T19:31:35.301Z,7.91
2019-02-19T19:34:04.712Z,7.91
2019-02-19T19:36:35.923Z,7.92
2019-02-19T19:39:06.974Z,7.91
2019-02-19T19:41:36.295Z,7.90
2019-02-19T19:44:05.708Z,7.95
2019-02-19T19:46:35.056Z,8.04
2019-02-19T19:49:04.433Z,8.10
2019-02-19T19:51:33.760Z,8.08
2019-02-19T19:54:03.109Z,8.11
2019-02-19T19:56:32.443Z,8.18
2019-02-19T19:59:01.825Z,8.36
2019-02-19T20:01:31.182Z,8.27
2019-02-19T20:04:00.655Z,8.15
2019-02-19T20:06:30.010Z,8.17
2019-02-19T20:08:59.352Z,8.06
2019-02-19T20:11:28.719Z,7.95
2019-02-19T20:14:00.331Z,7.87
2019-02-19T20:16:29.735Z,7.81
2019-02-19T20:18:59.098Z,7.75
2019-02-19T20:21:28.560Z,7.64
2019-02-19T20:23:57.893Z,7.62
2019-02-19T20:26:27.223Z,7.65
2019-02-19T20:28:56.554Z,7.71
2019-02-19T20:31:26.043Z,7.70
2019-02-19T20:33:55.385Z,7.66
2019-02-19T20:36:24.731Z,7.57
2019-02-19T20:38:54.138Z,7.54
2019-02-19T20:41:23.616Z,7.53
2019-02-19T20:43:53.006Z,7.58
2019-02-19T20:46:24.375Z,6.51
2019-02-19T20:48:54.159Z,7.60
2019-02-19T20:51:23.605Z,7.61
2019-02-19T20:53:53.906Z,7.58
2019-02-19T20:56:23.120Z,7.55
2019-02-19T20:58:52.635Z,7.51
2019-02-19T21:01:22.075Z,7.53
2019-02-19T21:03:51.501Z,7.56
2019-02-19T21:06:20.911Z,7.65
2019-02-19T21:08:50.384Z,7.66
2019-02-19T21:11:19.774Z,7.68
2019-02-19T21:13:49.328Z,7.66
2019-02-19T21:16:18.788Z,7.61
2019-02-19T21:18:48.190Z,7.59
2019-02-19T21:21:17.604Z,7.55
2019-02-19T21:23:47.098Z,7.59
2019-02-19T21:26:16.532Z,7.65
2019-02-19T21:28:45.942Z,7.63
2019-02-19T21:31:15.422Z,7.62
2019-02-19T21:33:44.833Z,7.49
2019-02-19T21:36:14.424Z,7.19
2019-02-19T21:38:43.871Z,7.02
2019-02-19T21:41:13.326Z,7.21
2019-02-19T21:43:42.919Z,7.41
2019-02-19T21:46:12.373Z,7.53
2019-02-19T21:48:48.047Z,7.45
2019-02-19T21:51:12.967Z,7.29
2019-02-19T21:53:42.487Z,7.37
2019-02-19T21:56:11.863Z,7.24
2019-02-19T21:58:41.341Z,7.11
2019-02-19T22:01:10.828Z,7.17
2019-02-19T22:03:40.176Z,7.20
2019-02-19T22:06:09.620Z,7.21
2019-02-19T22:08:39.174Z,7.18
2019-02-19T22:11:08.616Z,7.08
2019-02-19T22:13:38.098Z,7.02
2019-02-19T22:16:07.874Z,6.82
2019-02-19T22:18:37.533Z,6.60
2019-02-19T22:21:15.275Z,6.42
2019-02-19T22:23:44.710Z,6.22
2019-02-19T22:26:14.231Z,6.24
2019-02-19T22:28:43.677Z,6.33
2019-02-19T22:31:13.847Z,6.32
2019-02-19T22:33:43.699Z,6.38
2019-02-19T22:36:13.119Z,6.44
2019-02-19T22:38:42.550Z,6.32
2019-02-19T22:41:11.963Z,6.31
2019-02-19T22:43:41.469Z,6.27
2019-02-19T22:46:10.963Z,6.17
2019-02-19T22:48:40.401Z,6.07
2019-02-19T22:51:09.775Z,6.13
2019-02-19T22:53:58.117Z,6.17
2019-02-19T22:56:33.413Z,6.17
2019-02-19T22:59:02.996Z,6.25
2019-02-19T23:01:41.696Z,6.20
2019-02-19T23:04:11.237Z,6.10
2019-02-19T23:06:40.669Z,5.52
2019-02-19T23:09:10.226Z,5.97
2019-02-19T23:11:39.595Z,5.85
2019-02-19T23:14:09.124Z,5.67
2019-02-19T23:16:38.628Z,5.55
2019-02-19T23:19:08.094Z,5.53
2019-02-19T23:21:37.528Z,5.37
2019-02-19T23:24:07.043Z,5.29
2019-02-19T23:26:36.407Z,5.31
2019-02-19T23:29:05.819Z,5.17
2019-02-19T23:31:35.371Z,5.11
2019-02-19T23:34:05.614Z,5.14
2019-02-19T23:36:45.503Z,5.18
2019-02-19T23:39:15.153Z,5.18
2019-02-19T23:41:44.578Z,5.30
2019-02-19T23:44:14.018Z,5.26
2019-02-19T23:46:44.078Z,5.26
2019-02-19T23:49:13.582Z,5.34
2019-02-19T23:51:42.922Z,5.33
2019-02-19T23:54:12.353Z,5.28
2019-02-19T23:56:41.778Z,5.11
2019-02-19T23:59:11.539Z,4.95
